Time;durP1;ratioP1;P1;durP2;ratioP2;P2;SDS_P1;SDS_P2;PMS_P1;PMS_P2;Temp;Humidity;BMP_temperature;BMP_pressure;BME280_temperature;BME280_humidity;BME280_pressure;Samples;Min_cycle;Max_cycle;Signal;HPM_P1;HPM_P2
2023/05/17 00:01:28;;;;;;;;;3.50;3.25;;;;;13.70;54.79;101754.78;5053686;28;47688;-78
2023/05/17 00:04:07;;;;;;;;;;;;;;;;;;;;;
2023/05/17 00:06:51;;;;;;;;;3.75;3.50;;;;;13.08;55.26;101695.63;5052399;28;73216;-78
2023/05/17 00:09:19;;;;;;;;;5.25;3.50;;;;;13.40;55.18;101747.06;5053962;28;45870;-79
2023/05/17 00:11:48;;;;;;;;;4.00;3.00;;;;;12.92;54.92;101668.59;5068241;28;46315;-79
2023/05/17 00:14:24;;;;;;;;;;;;;;;;;;;;;
2023/05/17 00:16:58;;;;;;;;;8.75;7.00;;;;;13.56;55.34;101773.25;5052180;28;73399;-79
2023/05/17 00:19:49;;;;;;;;;7.00;4.50;;;;;12.88;55.35;101664.50;5053782;28;45832;-80
2023/05/17 00:22:27;;;;;;;;;8.00;7.00;;;;;13.10;55.44;101700.78;5037148;28;48407;-80
2023/05/17 00:24:55;;;;;;;;;5.00;5.00;;;;;13.07;55.09;101693.94;5051991;28;46445;-80
2023/05/17 00:30:35;;;;;;;;;7.00;7.00;;;;;13.42;55.12;101757.50;5030564;28;45815;-79
2023/05/17 00:33:03;;;;;;;;;4.25;4.25;;;;;13.42;55.17;101755.72;5030701;28;47509;-77
2023/05/17 00:35:29;;;;;;;;;7.00;7.00;;;;;13.52;55.22;101776.19;5014356;28;46254;-77
2023/05/17 00:37:55;;;;;;;;;3.50;3.25;;;;;13.51;55.39;101771.84;5030666;28;45976;-79
2023/05/17 00:40:21;;;;;;;;;6.25;5.75;;;;;13.48;55.45;101766.78;5030693;28;45661;-78
2023/05/17 00:46:07;;;;;;;;;8.00;6.75;;;;;13.39;55.67;101762.94;5030454;28;45897;-76
2023/05/17 00:48:33;;;;;;;;;7.00;5.00;;;;;13.27;55.21;101740.91;5030663;28;45876;-77
2023/05/17 00:50:59;;;;;;;;;7.00;5.50;;;;;13.41;55.82;101779.50;5030529;28;45939;-77
2023/05/17 00:53:25;;;;;;;;;5.00;4.00;;;;;13.36;55.45;101771.06;5030825;28;46409;-79
2023/05/17 00:55:51;;;;;;;;;8.00;6.75;;;;;13.31;55.66;101767.88;5030509;28;45708;-78
2023/05/17 01:01:42;;;;;;;;;7.75;6.00;;;;;13.30;55.67;101767.03;5049323;28;45618;-78
2023/05/17 01:04:09;;;;;;;;;4.75;4.00;;;;;13.26;55.79;101760.28;5052942;28;45549;-78
2023/05/17 01:06:36;;;;;;;;;4.00;3.75;;;;;13.35;55.93;101766.72;5052672;28;46055;-79
2023/05/17 01:09:02;;;;;;;;;7.00;5.00;;;;;13.32;55.77;101767.78;5052915;28;45574;-78
2023/05/17 01:12:17;;;;;;;;;7.25;4.25;;;;;13.27;55.96;101758.50;5052598;28;45526;-77
2023/05/17 01:18:43;;;;;;;;;6.50;4.50;;;;;13.12;55.85;101738.41;5052308;28;46108;-78
2023/05/17 01:21:38;;;;;;;;;4.00;4.00;;;;;13.28;56.21;101761.00;5052584;28;45812;-77
2023/05/17 01:24:25;;;;;;;;;5.25;4.75;;;;;13.28;56.38;101768.91;5068098;28;45725;-78
2023/05/17 01:26:52;;;;;;;;;6.00;5.25;;;;;13.27;56.27;101764.59;5052583;28;46680;-76
2023/05/17 01:29:21;;;;;;;;;4.00;3.75;;;;;13.27;56.08;101763.75;5050829;28;46830;-78
2023/05/17 01:31:48;;;;;;;;;7.00;4.50;;;;;13.20;56.48;101758.03;5053000;28;45761;-80
2023/05/17 01:34:29;;;;;;;;;7.50;5.25;;;;;13.26;56.48;101762.91;5053848;28;45616;-79
2023/05/17 01:36:56;;;;;;;;;5.50;5.00;;;;;13.07;56.45;101738.66;5033105;28;47523;-79
2023/05/17 01:39:23;;;;;;;;;5.00;5.00;;;;;12.99;56.51;101739.16;5034569;28;46071;-79
2023/05/17 01:42:21;;;;;;;;;5.00;5.00;;;;;13.25;56.81;101757.72;5034488;28;45900;-80
2023/05/17 01:44:58;;;;;;;;;5.00;5.00;;;;;13.25;56.63;101757.72;5034916;28;45792;-79
2023/05/17 01:48:01;;;;;;;;;7.75;5.00;;;;;12.92;56.89;101701.03;5017797;28;48149;-78
2023/05/17 01:50:30;;;;;;;;;5.00;5.00;;;;;12.99;56.66;101712.00;5034283;28;46040;-78
2023/05/17 01:56:30;;;;;;;;;4.75;4.75;;;;;12.52;56.76;101655.34;4956200;28;45722;-79
2023/05/17 02:05:22;;;;;;;;;7.00;4.00;;;;;13.06;57.85;101765.94;4943287;28;45711;-78
2023/05/17 02:10:42;;;;;;;;;8.75;8.75;;;;;12.45;57.92;101661.94;4899055;29;46383;-78
2023/05/17 02:13:08;;;;;;;;;5.25;5.25;;;;;12.62;57.88;101687.19;4898370;29;46382;-78
2023/05/17 02:19:27;;;;;;;;;9.75;8.25;;;;;13.02;57.98;101744.22;4936358;28;45777;-78
2023/05/17 02:21:52;;;;;;;;;7.75;7.00;;;;;12.81;57.79;101719.25;4935767;28;48701;-79
2023/05/17 02:24:18;;;;;;;;;7.25;7.00;;;;;13.07;57.78;101767.59;4936118;28;46190;-79
2023/05/17 02:26:44;;;;;;;;;8.00;8.00;;;;;12.97;58.17;101742.81;4936083;28;45539;-78
2023/05/17 02:29:10;;;;;;;;;9.75;7.75;;;;;13.09;57.95;101760.47;4936357;28;45674;-78
2023/05/17 02:31:35;;;;;;;;;7.00;6.50;;;;;13.13;57.99;101766.41;4935764;28;45746;-78
2023/05/17 02:34:00;;;;;;;;;7.00;5.25;;;;;13.16;58.20;101766.22;4985837;28;45600;-79
2023/05/17 02:36:26;;;;;;;;;8.00;7.75;;;;;13.09;57.73;101756.97;4994272;28;45701;-78
2023/05/17 02:38:51;;;;;;;;;8.25;8.00;;;;;13.10;58.16;101762.16;4994420;28;46018;-79
2023/05/17 02:41:16;;;;;;;;;7.75;6.50;;;;;13.17;58.12;101776.63;4999040;28;45827;-78
2023/05/17 02:43:42;;;;;;;;;8.00;7.00;;;;;13.10;57.98;101761.31;4998358;28;45707;-78
2023/05/17 02:49:37;;;;;;;;;9.25;8.00;;;;;12.97;58.45;101748.06;5060772;28;45710;-77
2023/05/17 02:52:02;;;;;;;;;10.00;9.00;;;;;13.13;58.32;101779.56;5060980;28;45653;-78
2023/05/17 02:54:28;;;;;;;;;6.25;5.00;;;;;13.01;58.44;101753.03;5056725;28;46843;-79
2023/05/17 02:56:53;;;;;;;;;9.75;9.75;;;;;13.11;58.09;101773.53;5056004;28;45521;-79
2023/05/17 02:59:21;;;;;;;;;13.00;8.00;;;;;12.98;58.51;101762.91;5071781;28;45624;-78
2023/05/17 03:05:09;;;;;;;;;10.50;9.75;;;;;13.07;58.58;101777.28;5056039;28;45765;-78
2023/05/17 03:07:40;;;;;;;;;10.00;9.75;;;;;12.60;58.55;101715.34;5071067;28;45734;-79
2023/05/17 03:10:09;;;;;;;;;16.00;11.25;;;;;12.91;58.75;101762.44;5056092;28;45796;-79
2023/05/17 03:12:40;;;;;;;;;10.50;10.50;;;;;13.01;58.50;101789.03;5055406;28;45625;-79
2023/05/17 03:15:15;;;;;;;;;15.00;9.75;;;;;12.99;58.80;101793.56;5055671;28;46004;-78
2023/05/17 03:17:40;;;;;;;;;10.25;9.50;;;;;12.34;58.74;101674.91;5054223;28;45801;-77
2023/05/17 03:20:06;;;;;;;;;10.00;8.75;;;;;13.01;59.07;101787.25;5070798;28;45833;-77
2023/05/17 03:22:34;;;;;;;;;11.00;10.00;;;;;12.48;58.95;101698.53;5055203;28;46528;-79
2023/05/17 03:25:09;;;;;;;;;12.25;10.75;;;;;12.85;59.11;101770.72;5055124;28;46313;-77
2023/05/17 03:27:37;;;;;;;;;13.25;11.50;;;;;12.94;59.39;101785.09;5055108;28;45837;-78
2023/05/17 03:30:03;;;;;;;;;10.25;10.00;;;;;12.93;59.29;101781.63;5053456;28;45861;-78
2023/05/17 03:32:36;;;;;;;;;14.00;13.50;;;;;12.69;59.22;101743.69;5054916;28;46609;-78
2023/05/17 03:35:01;;;;;;;;;16.75;14.00;;;;;12.92;59.46;101786.97;5070411;28;47968;-78
2023/05/17 03:37:27;;;;;;;;;13.50;11.00;;;;;12.93;59.28;101781.63;5055402;28;46188;-78
2023/05/17 03:39:52;;;;;;;;;15.00;13.25;;;;;12.72;59.76;101748.75;5053611;28;45929;-78
2023/05/17 03:42:20;;;;;;;;;15.25;15.25;;;;;12.71;59.77;101754.97;5055830;28;45607;-79
2023/05/17 03:44:57;;;;;;;;;15.75;14.00;;;;;12.51;59.82;101735.16;5055896;28;46743;-79
2023/05/17 03:50:44;;;;;;;;;19.75;14.75;;;;;12.16;60.30;101676.84;5054648;28;45698;-79
2023/05/17 03:53:09;;;;;;;;;18.00;15.75;;;;;12.46;59.90;101721.47;5055015;28;45683;-78
2023/05/17 03:55:35;;;;;;;;;16.50;13.75;;;;;12.59;59.90;101748.66;5054772;28;46185;-78
2023/05/17 03:58:05;;;;;;;;;17.75;14.25;;;;;12.72;60.09;101777.69;5054869;28;45643;-79
2023/05/17 04:00:31;;;;;;;;;15.25;15.00;;;;;12.54;60.30;101749.88;5055012;28;45582;-79
2023/05/17 04:02:56;;;;;;;;;14.25;13.50;;;;;12.36;60.19;101714.22;5055519;28;46527;-78
2023/05/17 04:05:22;;;;;;;;;20.00;16.00;;;;;12.63;60.19;101773.81;5055788;28;45649;-81
2023/05/17 04:07:47;;;;;;;;;18.25;16.75;;;;;12.76;60.61;101799.38;5070253;28;45972;-79
2023/05/17 04:10:12;;;;;;;;;19.75;14.25;;;;;12.33;61.06;101743.31;5054293;28;45900;-79
2023/05/17 04:12:38;;;;;;;;;23.00;21.75;;;;;12.56;61.17;101811.09;5054035;28;46264;-78
2023/05/17 04:15:05;;;;;;;;;17.25;15.00;;;;;12.45;61.09;101803.88;5054180;28;46828;-80
2023/05/17 04:20:54;;;;;;;;;19.75;18.50;;;;;12.51;61.33;101818.44;5054396;28;45653;-79
2023/05/17 04:23:19;;;;;;;;;22.25;18.50;;;;;12.54;61.45;101821.72;5054875;28;46600;-78
2023/05/17 04:25:45;;;;;;;;;23.75;19.25;;;;;12.54;61.39;101826.13;5054405;28;45727;-79
2023/05/17 04:28:11;;;;;;;;;22.75;18.75;;;;;12.51;61.89;101831.56;5054495;28;45677;-78
2023/05/17 04:30:41;;;;;;;;;29.25;19.00;;;;;12.43;61.79;101818.03;5054416;28;45494;-79
2023/05/17 04:33:06;;;;;;;;;20.50;19.75;;;;;12.43;61.70;101833.78;5054208;28;46225;-78
2023/05/17 04:35:32;;;;;;;;;19.00;16.00;;;;;12.37;62.24;101832.38;5052667;28;46632;-78
2023/05/17 04:37:57;;;;;;;;;24.00;19.50;;;;;12.32;61.97;101837.06;5054419;28;45582;-79
2023/05/17 04:40:23;;;;;;;;;21.25;19.75;;;;;12.14;62.19;101817.97;5054388;28;45602;-78
2023/05/17 04:42:48;;;;;;;;;20.00;18.50;;;;;12.22;62.46;101830.66;5054280;28;46278;-78
2023/05/17 04:45:15;;;;;;;;;22.75;20.25;;;;;12.22;62.46;101842.94;5054192;28;45701;-79
2023/05/17 04:51:23;;;;;;;;;18.50;18.50;;;;;12.09;62.52;101825.25;5054332;28;45735;-79
2023/05/17 04:53:51;;;;;;;;;23.50;17.50;;;;;12.13;62.76;101844.31;5054016;27;47073;-78
2023/05/17 04:56:27;;;;;;;;;22.50;17.75;;;;;12.17;62.69;101859.81;5054233;28;46070;-81
2023/05/17 05:02:05;;;;;;;;;21.00;19.25;;;;;11.57;62.45;101760.88;4972180;28;45957;-78
2023/05/17 05:04:44;;;;;;;;;26.25;22.25;;;;;11.46;62.16;101740.47;4971967;28;46815;-79
2023/05/17 05:07:30;;;;;;;;;23.25;19.50;;;;;11.59;62.55;101753.78;4972052;28;46040;-79
2023/05/17 05:09:56;;;;;;;;;17.75;17.25;;;;;11.83;62.42;101802.28;4971666;28;45768;-78
2023/05/17 05:12:21;;;;;;;;;18.25;17.75;;;;;12.29;62.28;101873.19;4971712;28;46175;-79
2023/05/17 05:14:47;;;;;;;;;21.25;18.25;;;;;12.32;62.40;101881.72;4973210;28;45804;-79
2023/05/17 05:17:12;;;;;;;;;18.75;18.00;;;;;12.27;62.45;101873.25;4972368;28;45667;-78
2023/05/17 05:19:37;;;;;;;;;18.25;16.75;;;;;12.34;62.34;101887.75;4972242;28;45773;-79
2023/05/17 05:22:03;;;;;;;;;23.50;20.50;;;;;12.35;62.46;101885.97;4973344;28;45867;-79
2023/05/17 05:24:28;;;;;;;;;18.75;15.75;;;;;12.35;62.38;101892.09;4973450;28;46034;-78
2023/05/17 05:26:54;;;;;;;;;22.00;18.25;;;;;12.24;62.14;101883.97;4975286;28;45723;-77
2023/05/17 05:29:20;;;;;;;;;20.50;18.75;;;;;12.33;62.17;101893.94;4973873;28;45644;-79
2023/05/17 05:31:45;;;;;;;;;21.00;20.25;;;;;12.35;62.01;101891.22;4975699;28;45920;-80
2023/05/17 05:34:11;;;;;;;;;20.50;19.00;;;;;12.28;61.81;101884.63;4974153;28;45590;-78
2023/05/17 05:36:36;;;;;;;;;21.00;16.00;;;;;12.27;61.55;101883.78;4973028;28;45651;-79
2023/05/17 05:39:02;;;;;;;;;16.75;14.50;;;;;12.29;61.57;101887.19;5011274;28;45772;-77
2023/05/17 05:41:27;;;;;;;;;19.50;16.75;;;;;12.33;61.74;101909.72;5053540;28;45586;-76
2023/05/17 05:43:53;;;;;;;;;19.00;16.25;;;;;12.29;61.45;101895.06;5053207;28;45810;-76
2023/05/17 05:46:18;;;;;;;;;17.00;15.75;;;;;12.38;61.44;101910.28;5053047;28;46071;-75
2023/05/17 05:52:05;;;;;;;;;19.75;17.75;;;;;12.28;61.49;101906.50;5052760;28;45593;-78
2023/05/17 05:54:30;;;;;;;;;19.50;18.50;;;;;12.34;61.49;101915.81;5052766;28;46758;-78
2023/05/17 05:56:56;;;;;;;;;23.00;16.75;;;;;12.38;61.88;101919.94;5052981;28;45611;-74
2023/05/17 05:59:21;;;;;;;;;21.50;17.50;;;;;12.37;61.43;101916.47;5052702;28;45597;-75
2023/05/17 06:01:48;;;;;;;;;23.25;20.75;;;;;12.43;61.71;101923.16;5052960;28;45567;-76
2023/05/17 06:04:14;;;;;;;;;22.25;18.25;;;;;12.36;61.54;101924.47;5053016;28;46734;-76
2023/05/17 06:06:40;;;;;;;;;17.50;17.50;;;;;12.39;61.29;101925.13;5052981;28;46145;-76
2023/05/17 06:09:06;;;;;;;;;16.75;15.75;;;;;12.42;61.62;101938.06;5052787;28;45470;-76
2023/05/17 06:11:31;;;;;;;;;18.25;16.25;;;;;12.32;61.47;101922.91;5052822;28;45732;-76
2023/05/17 06:13:57;;;;;;;;;20.50;19.50;;;;;12.46;61.63;101938.78;5052651;28;46252;-76
2023/05/17 06:16:23;;;;;;;;;21.00;17.25;;;;;12.47;61.31;101936.03;5052402;28;46238;-75
2023/05/17 06:22:10;;;;;;;;;19.00;14.00;;;;;12.47;61.50;101953.59;5054216;28;45751;-76
2023/05/17 06:24:36;;;;;;;;;14.25;12.00;;;;;12.40;61.39;101942.59;5055999;28;45684;-75
2023/05/17 06:27:01;;;;;;;;;18.75;16.00;;;;;12.44;61.43;101957.25;5055893;28;45783;-75
2023/05/17 06:29:27;;;;;;;;;15.00;14.00;;;;;12.43;61.32;101950.28;5055822;28;45782;-78
2023/05/17 06:31:55;;;;;;;;;14.00;13.00;;;;;12.47;61.13;101959.69;5056814;28;45715;-79
2023/05/17 06:37:41;;;;;;;;;16.25;13.50;;;;;12.42;60.97;101943.34;5055883;28;46237;-76
2023/05/17 06:40:09;;;;;;;;;16.00;14.00;;;;;12.44;60.95;101949.34;5054894;28;45651;-77
2023/05/17 06:42:34;;;;;;;;;13.75;13.00;;;;;12.47;60.74;101948.34;5054915;28;45900;-77
2023/05/17 06:45:00;;;;;;;;;14.00;12.75;;;;;12.52;60.51;101964.72;5054744;28;47539;-79
2023/05/17 06:50:47;;;;;;;;;15.00;13.00;;;;;12.51;60.06;101950.72;5054206;28;45702;-78
2023/05/17 06:53:13;;;;;;;;;14.00;12.00;;;;;12.54;59.88;101971.56;5070454;28;45688;-78
2023/05/17 06:55:39;;;;;;;;;18.00;14.00;;;;;12.53;59.56;101966.38;5054827;28;46273;-77
2023/05/17 06:58:04;;;;;;;;;14.50;9.75;;;;;12.53;59.84;101971.63;5054166;28;47443;-76
2023/05/17 07:00:33;;;;;;;;;10.50;10.00;;;;;12.53;59.61;101963.75;5053506;28;45812;-79
2023/05/17 07:06:22;;;;;;;;;13.75;10.75;;;;;12.40;59.52;101939.97;5054097;28;45913;-78
2023/05/17 07:08:48;;;;;;;;;10.00;8.00;;;;;12.53;59.27;101959.34;5054740;28;46969;-78
2023/05/17 07:11:14;;;;;;;;;11.75;9.00;;;;;12.28;59.34;101924.03;5054136;28;45723;-77
2023/05/17 07:13:41;;;;;;;;;12.25;9.75;;;;;12.63;59.44;101966.72;5036144;28;45843;-77
2023/05/17 07:16:10;;;;;;;;;9.00;7.50;;;;;12.66;58.99;101972.63;5053771;28;45771;-78
2023/05/17 07:21:58;;;;;;;;;12.25;9.00;;;;;12.60;59.17;101972.97;5048725;28;45823;-82
2023/05/17 07:24:25;;;;;;;;;11.25;8.25;;;;;12.70;59.34;101991.69;5051585;28;46066;-82
2023/05/17 07:26:52;;;;;;;;;13.00;9.00;;;;;12.69;59.38;101990.84;5051447;28;46617;-81
2023/05/17 07:29:17;;;;;;;;;10.00;9.00;;;;;12.35;59.20;101926.25;5053981;28;45654;-80
2023/05/17 07:31:42;;;;;;;;;14.50;12.00;;;;;12.79;59.09;101996.44;5051976;28;45890;-81
2023/05/17 07:37:29;;;;;;;;;12.50;9.75;;;;;12.72;58.71;101971.44;5053958;28;45694;-82
2023/05/17 07:39:55;;;;;;;;;7.50;7.50;;;;;12.92;58.73;101995.63;5053435;28;45910;-83
2023/05/17 07:42:20;;;;;;;;;10.25;9.25;;;;;12.92;58.47;101995.63;5054448;28;45627;-85
2023/05/17 07:44:47;;;;;;;;;11.25;10.00;;;;;12.92;58.04;101998.25;5054326;28;45654;-83
2023/05/17 07:47:13;;;;;;;;;8.25;8.00;;;;;12.93;58.13;101999.97;5054510;28;45695;-82
2023/05/17 07:53:00;;;;;;;;;13.25;9.50;;;;;12.90;57.55;101978.25;5054936;28;45708;-80
2023/05/17 07:55:25;;;;;;;;;10.50;9.00;;;;;12.98;58.00;101992.63;5055642;28;45705;-81
2023/05/17 07:57:51;;;;;;;;;8.75;8.25;;;;;12.92;57.70;101984.25;5070857;28;46474;-85
2023/05/17 08:00:18;;;;;;;;;9.00;8.25;;;;;13.02;57.34;102001.19;5069229;28;46582;-84
2023/05/17 08:02:43;;;;;;;;;11.50;9.25;;;;;13.02;57.90;101999.41;5053766;28;45899;-76
2023/05/17 08:08:30;;;;;;;;;12.25;11.00;;;;;13.09;57.48;102005.16;5052981;28;46133;-76
2023/05/17 08:10:56;;;;;;;;;12.25;12.00;;;;;13.13;57.25;102003.22;5052348;28;45847;-76
2023/05/17 08:13:22;;;;;;;;;10.75;9.75;;;;;13.12;57.37;102005.00;5053455;28;45688;-76
2023/05/17 08:15:47;;;;;;;;;13.00;10.00;;;;;13.14;57.05;101999.66;5051514;28;45575;-77
2023/05/17 08:18:13;;;;;;;;;8.50;8.00;;;;;13.15;56.88;102006.63;5051539;28;45812;-76
2023/05/17 08:24:00;;;;;;;;;10.50;7.25;;;;;13.05;56.93;101998.41;5052539;28;45635;-76
2023/05/17 08:26:25;;;;;;;;;10.00;10.00;;;;;13.09;57.36;102007.78;5051954;28;45830;-76
2023/05/17 08:28:50;;;;;;;;;10.50;9.75;;;;;13.06;56.91;101994.84;5067350;28;52999;-78
2023/05/17 08:31:16;;;;;;;;;10.75;9.00;;;;;13.11;56.69;101989.28;5053280;28;46029;-74
2023/05/17 08:33:41;;;;;;;;;10.50;9.00;;;;;13.09;57.02;101993.78;5052916;28;45721;-77
2023/05/17 08:36:07;;;;;;;;;11.75;9.50;;;;;13.17;56.99;102004.75;5067723;28;45590;-76
2023/05/17 08:38:33;;;;;;;;;10.25;9.00;;;;;13.03;56.67;101964.28;5052628;28;45748;-74
2023/05/17 08:40:58;;;;;;;;;9.00;9.00;;;;;13.31;56.91;101988.97;5051824;28;45560;-77
2023/05/17 08:43:25;;;;;;;;;9.00;8.00;;;;;13.36;56.56;101993.03;5052857;28;45639;-75
2023/05/17 08:45:51;;;;;;;;;11.75;9.00;;;;;13.44;56.53;101993.38;5051505;28;45889;-76
2023/05/17 08:48:20;;;;;;;;;11.00;10.50;;;;;13.49;55.69;102003.66;5052548;28;47484;-76
2023/05/17 08:54:07;;;;;;;;;12.75;8.00;;;;;13.39;55.53;101974.38;5052624;28;45835;-76
2023/05/17 08:56:36;;;;;;;;;7.00;7.00;;;;;13.54;54.94;101984.94;5052484;28;45905;-77
2023/05/17 08:59:05;;;;;;;;;8.25;5.00;;;;;13.62;53.82;101985.31;5051495;28;46582;-76
2023/05/17 09:01:31;;;;;;;;;8.25;7.75;;;;;13.68;53.40;101971.75;5052569;28;45933;-76
2023/05/17 09:03:58;;;;;;;;;7.00;4.00;;;;;13.63;52.70;101977.31;5051901;28;45747;-77
2023/05/17 09:06:24;;;;;;;;;8.75;4.75;;;;;13.58;52.48;101952.22;5052207;28;45735;-77
2023/05/17 09:08:53;;;;;;;;;7.75;4.50;;;;;13.76;51.23;101986.16;5051522;28;46384;-77
2023/05/17 09:11:28;;;;;;;;;8.00;4.00;;;;;13.80;51.00;101973.63;5050562;28;47238;-77
2023/05/17 09:13:58;;;;;;;;;4.00;4.00;;;;;13.79;51.04;101970.16;5050707;28;45852;-76
2023/05/17 09:16:25;;;;;;;;;6.25;4.25;;;;;13.79;51.31;101956.97;5050989;28;45637;-75
2023/05/17 09:18:56;;;;;;;;;5.25;4.00;;;;;13.98;51.63;101969.00;5049962;28;46563;-76
2023/05/17 09:24:44;;;;;;;;;7.75;5.75;;;;;14.06;51.76;101969.34;5050937;28;45884;-78
2023/05/17 09:27:18;;;;;;;;;6.50;4.00;;;;;14.13;50.63;101973.28;5052489;28;45604;-75
2023/05/17 09:29:45;;;;;;;;;6.00;5.00;;;;;14.12;50.57;101983.00;5049834;28;48633;-77
2023/05/17 09:32:19;;;;;;;;;5.75;1.50;;;;;14.14;50.85;101982.91;5052832;28;46425;-78
2023/05/17 09:34:47;;;;;;;;;5.50;4.00;;;;;14.15;50.47;101982.78;5051750;28;45805;-76
2023/05/17 09:37:16;;;;;;;;;3.25;3.25;;;;;14.17;50.85;101983.53;5050776;28;46014;-77
2023/05/17 09:39:47;;;;;;;;;4.75;3.75;;;;;14.19;50.38;101972.91;5049755;28;46539;-77
2023/05/17 09:42:15;;;;;;;;;6.50;5.00;;;;;14.21;50.51;101973.63;5067109;28;46365;-75
2023/05/17 09:44:58;;;;;;;;;6.25;5.00;;;;;14.27;50.56;101960.91;5051744;28;45707;-76
2023/05/17 09:47:26;;;;;;;;;7.50;5.25;;;;;14.29;50.78;101958.19;5052231;28;45709;-77
2023/05/17 09:49:51;;;;;;;;;5.00;4.00;;;;;14.43;50.60;101965.22;5051156;28;45800;-75
2023/05/17 09:52:19;;;;;;;;;5.50;5.25;;;;;14.50;50.63;101982.34;5051682;28;45572;-77
2023/05/17 09:54:51;;;;;;;;;9.00;5.00;;;;;14.50;50.22;101963.88;5051842;28;45532;-77
2023/05/17 09:57:17;;;;;;;;;5.00;4.25;;;;;14.53;50.11;101956.59;5053424;28;45857;-77
2023/05/17 09:59:43;;;;;;;;;4.00;4.00;;;;;14.55;50.00;101954.72;5054771;28;45747;-78
2023/05/17 10:02:19;;;;;;;;;5.25;3.25;;;;;14.70;49.48;101979.22;5054598;28;46225;-76
2023/05/17 10:04:48;;;;;;;;;6.25;4.75;;;;;14.63;49.33;101951.53;5053670;28;46086;-77
2023/05/17 10:07:18;;;;;;;;;5.75;4.75;;;;;14.74;49.40;101967.50;5055289;28;45816;-76
2023/05/17 10:09:48;;;;;;;;;4.25;2.75;;;;;14.68;49.51;101952.94;5054344;28;47529;-76
2023/05/17 10:12:23;;;;;;;;;5.00;5.00;;;;;14.81;49.35;101978.50;5054910;28;46913;-76
2023/05/17 10:14:49;;;;;;;;;6.00;6.00;;;;;14.80;49.47;101964.47;5054980;28;45667;-76
2023/05/17 10:17:16;;;;;;;;;3.25;1.50;;;;;14.81;49.09;101968.78;5055292;28;45735;-76
2023/05/17 10:19:43;;;;;;;;;5.75;5.00;;;;;14.89;48.89;101968.28;5054306;28;47481;-76
2023/05/17 10:22:09;;;;;;;;;5.00;5.00;;;;;14.90;48.90;101968.16;5054882;28;46564;-75
2023/05/17 10:24:36;;;;;;;;;6.00;6.00;;;;;14.93;49.05;101964.50;5055195;28;45588;-77
2023/05/17 10:27:02;;;;;;;;;5.00;4.00;;;;;14.94;48.73;101953.84;5055223;28;45966;-76
2023/05/17 10:29:30;;;;;;;;;6.25;5.75;;;;;14.82;49.05;101923.00;5053618;28;46339;-76
2023/05/17 10:31:57;;;;;;;;;5.50;5.00;;;;;15.06;48.45;101954.81;5054609;28;47189;-76
2023/05/17 10:34:26;;;;;;;;;4.00;3.75;;;;;15.06;48.30;101954.81;5054355;28;45779;-77
2023/05/17 10:40:16;;;;;;;;;2.00;2.00;;;;;15.16;47.81;101939.16;5053928;28;45658;-75
2023/05/17 10:42:46;;;;;;;;;3.50;3.00;;;;;15.07;47.45;101917.72;5053104;28;48165;-76
2023/05/17 10:45:12;;;;;;;;;6.00;3.00;;;;;15.28;47.39;101933.03;5054551;28;45575;-76
2023/05/17 10:47:42;;;;;;;;;4.75;3.00;;;;;15.33;47.40;101936.22;5054788;28;45760;-77
2023/05/17 10:50:17;;;;;;;;;3.75;2.25;;;;;15.39;47.20;101933.13;5053231;28;45766;-77
2023/05/17 10:52:48;;;;;;;;;3.75;3.00;;;;;15.48;46.77;101925.41;5054141;28;46090;-77
2023/05/17 10:55:21;;;;;;;;;3.25;3.00;;;;;15.58;46.62;101922.16;5054286;28;45694;-75
2023/05/17 10:58:17;;;;;;;;;3.00;3.00;;;;;15.61;46.83;101909.56;5054806;28;45832;-74
2023/05/17 11:00:45;;;;;;;;;3.50;3.25;;;;;15.75;46.69;101917.34;5053229;28;47646;-76
2023/05/17 11:03:32;;;;;;;;;5.00;3.75;;;;;15.82;46.20;101925.66;5054486;28;45957;-77
2023/05/17 11:06:20;;;;;;;;;3.75;3.00;;;;;15.85;46.39;101922.81;5053998;28;45847;-77
2023/05/17 11:09:07;;;;;;;;;3.50;3.50;;;;;15.90;46.06;101926.81;5052735;28;45736;-77
2023/05/17 11:11:52;;;;;;;;;4.75;3.75;;;;;15.94;45.83;101930.91;5052213;28;45625;-76
2023/05/17 11:14:19;;;;;;;;;2.50;2.50;;;;;15.91;45.42;101910.00;5051322;28;46002;-78
2023/05/17 11:16:45;;;;;;;;;3.75;3.25;;;;;16.04;45.37;101923.16;5052018;28;45619;-76
2023/05/17 11:19:10;;;;;;;;;3.00;3.00;;;;;16.06;45.00;101920.41;5050534;28;46009;-77
2023/05/17 11:21:45;;;;;;;;;3.00;3.00;;;;;16.10;44.88;101921.88;5051781;28;45774;-77
2023/05/17 11:24:15;;;;;;;;;3.00;2.50;;;;;16.17;45.03;101925.75;5050855;28;47191;-77
2023/05/17 11:26:44;;;;;;;;;3.00;2.00;;;;;16.21;44.65;101917.47;5051488;28;45674;-78
2023/05/17 11:29:10;;;;;;;;;2.50;2.50;;;;;16.28;44.89;101916.09;5050843;28;45624;-77
2023/05/17 11:31:42;;;;;;;;;2.00;2.00;;;;;16.36;44.39;101908.41;5051800;28;45801;-77
2023/05/17 11:34:08;;;;;;;;;2.75;2.00;;;;;16.45;44.21;101909.53;5050650;28;46277;-76
2023/05/17 11:36:52;;;;;;;;;3.50;3.00;;;;;16.49;44.42;101911.00;5050771;28;45728;-76
2023/05/17 11:39:21;;;;;;;;;2.00;2.00;;;;;16.54;44.29;101902.69;5049589;28;45581;-76
2023/05/17 11:41:52;;;;;;;;;4.00;3.00;;;;;16.57;43.59;101903.31;5051107;28;47529;-77
2023/05/17 11:44:32;;;;;;;;;5.00;4.00;;;;;16.62;44.17;101895.06;5051106;28;46628;-77
2023/05/17 11:47:04;;;;;;;;;2.00;2.00;;;;;16.68;44.23;101898.06;5053289;28;45727;-77
2023/05/17 11:49:31;;;;;;;;;3.00;3.00;;;;;16.70;43.38;101887.38;5052864;28;45718;-77
2023/05/17 11:51:57;;;;;;;;;3.50;3.00;;;;;16.76;44.06;101900.16;5053435;28;46476;-77
2023/05/17 11:54:27;;;;;;;;;2.50;2.00;;;;;16.82;44.03;101875.00;5053378;28;46511;-77
2023/05/17 11:56:55;;;;;;;;;3.00;3.00;;;;;16.78;44.00;101845.31;5053665;28;45741;-75
2023/05/17 11:59:21;;;;;;;;;4.75;3.00;;;;;17.05;43.88;101884.69;5053143;28;45856;-78
2023/05/17 12:01:48;;;;;;;;;2.50;1.75;;;;;17.09;43.63;101881.66;5053819;28;46688;-75
2023/05/17 12:04:23;;;;;;;;;2.00;2.00;;;;;17.16;42.68;101882.88;5053480;28;46021;-78
2023/05/17 12:06:49;;;;;;;;;3.00;2.50;;;;;17.10;42.67;101858.69;5054312;28;45652;-77
2023/05/17 12:09:16;;;;;;;;;3.00;2.50;;;;;17.07;43.02;101850.97;5054362;28;45646;-78
2023/05/17 12:11:45;;;;;;;;;2.00;2.00;;;;;17.18;43.10;101869.50;5054110;28;47408;-78
2023/05/17 12:14:15;;;;;;;;;2.00;2.00;;;;;17.16;42.60;101864.34;5054194;28;45975;-76
2023/05/17 12:16:43;;;;;;;;;2.75;2.75;;;;;17.16;42.56;101859.03;5054307;28;45742;-78
2023/05/17 12:19:23;;;;;;;;;4.00;3.00;;;;;17.22;42.82;101878.88;5052713;28;45810;-76
2023/05/17 12:21:49;;;;;;;;;2.25;2.00;;;;;16.89;42.51;101818.00;5054557;28;45645;-78
2023/05/17 12:24:15;;;;;;;;;2.00;1.00;;;;;17.16;42.29;101872.28;5054439;28;46066;-78
2023/05/17 12:26:47;;;;;;;;;2.00;2.00;;;;;17.12;42.47;101865.53;5054056;28;45589;-78
2023/05/17 12:29:14;;;;;;;;;4.00;3.00;;;;;17.09;42.52;101871.06;5053918;28;45586;-76
2023/05/17 12:31:43;;;;;;;;;3.75;2.75;;;;;17.01;42.86;101849.63;5054007;28;46669;-79
2023/05/17 12:34:11;;;;;;;;;2.50;2.00;;;;;17.14;42.92;101862.75;5054637;28;45965;-78
2023/05/17 12:36:37;;;;;;;;;2.00;2.00;;;;;17.13;43.12;101853.97;5054486;28;45694;-78
2023/05/17 12:39:05;;;;;;;;;3.00;2.25;;;;;17.11;42.77;101845.28;5054225;28;45666;-78
2023/05/17 12:41:31;;;;;;;;;3.00;2.00;;;;;17.24;42.70;101857.56;5054339;28;46513;-76
2023/05/17 12:43:56;;;;;;;;;3.00;2.00;;;;;17.30;42.64;101857.94;5054083;28;46072;-77
2023/05/17 12:46:22;;;;;;;;;3.00;3.00;;;;;17.35;42.83;101852.28;5053895;28;45610;-76
2023/05/17 12:48:50;;;;;;;;;1.00;0.00;;;;;17.41;42.58;101854.44;5054247;28;45511;-77
2023/05/17 12:51:17;;;;;;;;;2.25;2.00;;;;;17.40;42.56;101856.25;5052670;28;48326;-77
2023/05/17 12:57:14;;;;;;;;;3.00;3.00;;;;;17.40;42.42;101844.78;5053784;28;45539;-78
2023/05/17 12:59:51;;;;;;;;;2.00;2.00;;;;;17.50;42.52;101853.69;5053818;28;45732;-78
2023/05/17 13:02:20;;;;;;;;;3.00;2.25;;;;;17.52;41.63;101849.13;5053761;28;45660;-78
2023/05/17 13:04:46;;;;;;;;;2.00;2.00;;;;;17.49;41.26;101865.28;5053785;28;46496;-77
2023/05/17 13:07:11;;;;;;;;;3.00;2.00;;;;;17.39;41.67;101841.31;5053636;28;45633;-78